Time;durP1;ratioP1;P1;durP2;ratioP2;P2;SDS_P1;SDS_P2;PMS_P1;PMS_P2;Temp;Humidity;BMP_temperature;BMP_pressure;BME280_temperature;BME280_humidity;BME280_pressure;Samples;Min_cycle;Max_cycle;Signal;HPM_P1;HPM_P2
2023/08/16 00:01:51;;;;;;;39.33;37.30;;;;;;;;;;5040259;28;20788;-39
2023/08/16 00:04:19;;;;;;;40.70;38.17;;;;;;;;;;5040393;28;20475;-39
2023/08/16 00:06:48;;;;;;;37.73;35.80;;;;;;;;;;5040973;28;20451;-41
2023/08/16 00:09:16;;;;;;;37.57;35.80;;;;;;;;;;5041409;28;20440;-41
2023/08/16 00:11:44;;;;;;;40.03;37.47;;;;;;;;;;5043583;28;20511;-41
2023/08/16 00:14:11;;;;;;;42.80;40.50;;;;;;;;;;5044462;28;20902;-41
2023/08/16 00:16:40;;;;;;;40.67;38.47;;;;;;;;;;5039838;28;20502;-41
2023/08/16 00:19:07;;;;;;;38.87;36.23;;;;;;;;;;5033879;28;20436;-40
2023/08/16 00:21:35;;;;;;;41.03;38.93;;;;;;;;;;5033819;28;20519;-39
2023/08/16 00:24:05;;;;;;;41.20;39.17;;;;;;;;;;5033238;28;20464;-39
2023/08/16 00:26:32;;;;;;;38.23;36.10;;;;;;;;;;5033517;28;20487;-39
2023/08/16 00:29:01;;;;;;;38.63;36.53;;;;;;;;;;5032657;28;20960;-39
2023/08/16 00:31:28;;;;;;;40.13;38.23;;;;;;;;;;5033290;28;20470;-39
2023/08/16 00:33:56;;;;;;;44.17;41.67;;;;;;;;;;5033190;28;20490;-41
2023/08/16 00:36:23;;;;;;;40.77;38.57;;;;;;;;;;5033994;28;20452;-41
2023/08/16 00:38:51;;;;;;;43.03;40.60;;;;;;;;;;5033864;28;20475;-39
2023/08/16 00:41:20;;;;;;;42.97;40.83;;;;;;;;;;5033540;28;20436;-38
2023/08/16 00:43:47;;;;;;;40.63;38.47;;;;;;;;;;5033190;28;20468;-39
2023/08/16 00:46:15;;;;;;;46.27;43.93;;;;;;;;;;5033125;28;20502;-39
2023/08/16 00:48:44;;;;;;;43.23;40.90;;;;;;;;;;5033367;28;20442;-39
2023/08/16 00:51:11;;;;;;;42.50;40.30;;;;;;;;;;5033459;28;20475;-40
2023/08/16 00:53:40;;;;;;;45.53;43.40;;;;;;;;;;5032660;28;20479;-40
2023/08/16 00:56:08;;;;;;;46.83;44.50;;;;;;;;;;5032848;28;20571;-38
2023/08/16 00:58:37;;;;;;;49.30;47.20;;;;;;;;;;5033082;28;20925;-40
2023/08/16 01:01:04;;;;;;;45.73;43.80;;;;;;;;;;5033299;28;20463;-41
2023/08/16 01:03:32;;;;;;;49.57;47.23;;;;;;;;;;5032246;28;20483;-40
2023/08/16 01:06:00;;;;;;;49.60;47.63;;;;;;;;;;5033131;28;20452;-39
2023/08/16 01:08:27;;;;;;;50.30;47.80;;;;;;;;;;5032770;28;20539;-40
2023/08/16 01:10:58;;;;;;;48.07;45.87;;;;;;;;;;5032732;28;20432;-39
2023/08/16 01:13:28;;;;;;;52.17;49.53;;;;;;;;;;5032103;28;20475;-42
2023/08/16 01:15:57;;;;;;;49.47;47.20;;;;;;;;;;5032600;28;21001;-38
2023/08/16 01:18:26;;;;;;;54.20;52.03;;;;;;;;;;5033093;28;20813;-38
2023/08/16 01:20:55;;;;;;;55.03;52.80;;;;;;;;;;5032862;28;20922;-38
2023/08/16 01:23:25;;;;;;;50.50;48.40;;;;;;;;;;5031309;28;20432;-39
2023/08/16 01:25:57;;;;;;;53.90;51.80;;;;;;;;;;5032822;28;20511;-41
2023/08/16 01:28:26;;;;;;;55.43;52.90;;;;;;;;;;5033177;28;20513;-38
2023/08/16 01:30:59;;;;;;;53.63;51.10;;;;;;;;;;5032911;28;20519;-38
2023/08/16 01:33:27;;;;;;;55.37;53.17;;;;;;;;;;5031891;28;20494;-39
2023/08/16 01:35:54;;;;;;;55.63;53.03;;;;;;;;;;5032185;28;20478;-41
2023/08/16 01:38:22;;;;;;;56.10;53.70;;;;;;;;;;5032540;28;20432;-38
2023/08/16 01:40:52;;;;;;;55.23;52.70;;;;;;;;;;5032615;28;20432;-39
2023/08/16 01:43:20;;;;;;;57.50;54.87;;;;;;;;;;5031900;28;20826;-38
2023/08/16 01:45:50;;;;;;;55.17;52.90;;;;;;;;;;5032278;28;20524;-38
2023/08/16 01:48:18;;;;;;;56.87;54.30;;;;;;;;;;5032268;28;20455;-38
2023/08/16 01:50:46;;;;;;;56.93;54.43;;;;;;;;;;5032414;28;20433;-39
2023/08/16 01:53:14;;;;;;;63.70;61.30;;;;;;;;;;5031137;28;20507;-38
2023/08/16 01:55:41;;;;;;;56.77;54.00;;;;;;;;;;5032259;28;20539;-37
2023/08/16 01:58:09;;;;;;;59.90;57.50;;;;;;;;;;5031077;28;20845;-38
2023/08/16 02:00:36;;;;;;;63.23;59.70;;;;;;;;;;5032177;28;20444;-42
2023/08/16 02:03:05;;;;;;;60.17;57.83;;;;;;;;;;5032146;28;20432;-44
2023/08/16 02:05:33;;;;;;;57.63;55.17;;;;;;;;;;5031835;28;20448;-37
2023/08/16 02:08:00;;;;;;;62.70;59.80;;;;;;;;;;5032480;28;20462;-39
2023/08/16 02:10:28;;;;;;;63.70;61.40;;;;;;;;;;5032074;28;20787;-38
2023/08/16 02:12:55;;;;;;;62.27;59.43;;;;;;;;;;5031709;28;20945;-40
2023/08/16 02:15:23;;;;;;;66.07;62.87;;;;;;;;;;5031364;28;20479;-38
2023/08/16 02:17:50;;;;;;;64.00;61.10;;;;;;;;;;5031532;28;20507;-41
2023/08/16 02:20:19;;;;;;;63.47;60.23;;;;;;;;;;5032073;28;20448;-40
2023/08/16 02:22:47;;;;;;;62.30;59.87;;;;;;;;;;5031731;28;20543;-39
2023/08/16 02:25:14;;;;;;;69.67;65.63;;;;;;;;;;5031521;28;20556;-38
2023/08/16 02:27:42;;;;;;;61.97;59.67;;;;;;;;;;5031204;28;20511;-40
2023/08/16 02:30:09;;;;;;;65.40;62.90;;;;;;;;;;5030993;28;20467;-40
2023/08/16 02:32:37;;;;;;;65.10;61.90;;;;;;;;;;5031603;28;20436;-41
2023/08/16 02:35:05;;;;;;;62.97;60.20;;;;;;;;;;5031014;28;20821;-44
2023/08/16 02:37:33;;;;;;;63.73;60.87;;;;;;;;;;5031668;28;20822;-40
2023/08/16 02:40:01;;;;;;;60.90;58.67;;;;;;;;;;5031644;28;20460;-42
2023/08/16 02:42:29;;;;;;;66.77;63.70;;;;;;;;;;5031346;28;20514;-40
2023/08/16 02:44:56;;;;;;;66.43;63.63;;;;;;;;;;5030848;28;21019;-40
2023/08/16 02:47:23;;;;;;;65.57;62.20;;;;;;;;;;5031218;28;20495;-38
2023/08/16 02:49:52;;;;;;;72.53;69.43;;;;;;;;;;5031105;28;20440;-41
2023/08/16 02:52:19;;;;;;;69.07;66.23;;;;;;;;;;5031357;28;20439;-40
2023/08/16 02:54:48;;;;;;;70.57;67.67;;;;;;;;;;5031091;28;20483;-40
2023/08/16 02:57:16;;;;;;;71.17;68.57;;;;;;;;;;5031040;28;20637;-41
2023/08/16 02:59:46;;;;;;;71.13;67.93;;;;;;;;;;5030967;28;20490;-40
2023/08/16 03:02:14;;;;;;;70.87;68.07;;;;;;;;;;5030768;28;20930;-40
2023/08/16 03:04:42;;;;;;;69.90;67.40;;;;;;;;;;5030815;28;20466;-43
2023/08/16 03:07:10;;;;;;;72.23;69.20;;;;;;;;;;5030455;28;20449;-41
2023/08/16 03:09:37;;;;;;;72.37;68.97;;;;;;;;;;5030973;28;20432;-43
2023/08/16 03:12:07;;;;;;;71.27;68.13;;;;;;;;;;5030282;28;20483;-41
2023/08/16 03:14:34;;;;;;;74.37;71.27;;;;;;;;;;5030718;28;20460;-45
2023/08/16 03:17:02;;;;;;;77.93;74.60;;;;;;;;;;5031015;28;20792;-42
2023/08/16 03:19:29;;;;;;;74.17;71.27;;;;;;;;;;5031140;28;20436;-41
2023/08/16 03:21:57;;;;;;;76.23;72.40;;;;;;;;;;5030884;28;20464;-39
2023/08/16 03:24:26;;;;;;;70.47;67.50;;;;;;;;;;5030576;28;20831;-39
2023/08/16 03:26:53;;;;;;;82.93;79.93;;;;;;;;;;5031031;28;20504;-38
2023/08/16 03:29:22;;;;;;;75.10;71.77;;;;;;;;;;5030905;28;20965;-38
2023/08/16 03:31:50;;;;;;;78.60;75.57;;;;;;;;;;5030912;28;20535;-38
2023/08/16 03:34:17;;;;;;;75.57;72.30;;;;;;;;;;5030786;28;20547;-37
2023/08/16 03:36:45;;;;;;;80.83;77.63;;;;;;;;;;5030489;28;20488;-40
2023/08/16 03:39:12;;;;;;;73.93;70.93;;;;;;;;;;5030784;28;20938;-41
2023/08/16 03:41:40;;;;;;;74.27;71.20;;;;;;;;;;5030688;28;20436;-45
2023/08/16 03:44:07;;;;;;;73.93;70.77;;;;;;;;;;5030630;28;20551;-40
2023/08/16 03:46:36;;;;;;;73.63;70.90;;;;;;;;;;5032658;28;20507;-37
2023/08/16 03:49:04;;;;;;;77.17;74.40;;;;;;;;;;5034887;28;20443;-40
2023/08/16 03:51:32;;;;;;;76.53;73.73;;;;;;;;;;5034378;28;20444;-41
2023/08/16 03:53:59;;;;;;;69.03;66.43;;;;;;;;;;5034321;28;20455;-43
2023/08/16 03:56:27;;;;;;;79.03;75.87;;;;;;;;;;5034544;28;20542;-38
2023/08/16 03:58:54;;;;;;;77.23;74.43;;;;;;;;;;5033843;28;20475;-38
2023/08/16 04:01:22;;;;;;;70.73;67.63;;;;;;;;;;5034194;28;20463;-41
2023/08/16 04:03:51;;;;;;;72.27;69.23;;;;;;;;;;5034105;28;20456;-43
2023/08/16 04:06:20;;;;;;;73.50;70.43;;;;;;;;;;5033884;28;20965;-42
2023/08/16 04:08:48;;;;;;;73.93;71.03;;;;;;;;;;5034356;28;20535;-41
2023/08/16 04:11:15;;;;;;;75.80;72.17;;;;;;;;;;5033897;28;20432;-41
2023/08/16 04:13:43;;;;;;;78.07;74.87;;;;;;;;;;5033077;28;20455;-42
2023/08/16 04:16:10;;;;;;;71.23;68.23;;;;;;;;;;5033865;28;20470;-43
2023/08/16 04:18:38;;;;;;;75.23;71.93;;;;;;;;;;5032868;28;20997;-40
2023/08/16 04:21:07;;;;;;;73.77;70.77;;;;;;;;;;5033258;28;20436;-42
2023/08/16 04:23:34;;;;;;;74.30;71.33;;;;;;;;;;5033430;28;20455;-45
2023/08/16 04:26:02;;;;;;;67.13;64.50;;;;;;;;;;5032973;28;20478;-41
2023/08/16 04:28:29;;;;;;;70.93;68.23;;;;;;;;;;5033466;28;20590;-42
2023/08/16 04:30:59;;;;;;;67.83;65.20;;;;;;;;;;5032616;28;20435;-41
2023/08/16 04:33:27;;;;;;;73.13;69.93;;;;;;;;;;5032967;28;20436;-41
2023/08/16 04:35:56;;;;;;;67.50;64.60;;;;;;;;;;5033232;28;20436;-41
2023/08/16 04:38:24;;;;;;;67.47;64.57;;;;;;;;;;5032635;28;20526;-40
2023/08/16 04:40:52;;;;;;;70.47;67.50;;;;;;;;;;5033253;28;20467;-40
2023/08/16 04:43:20;;;;;;;67.20;64.33;;;;;;;;;;5032450;28;20491;-39
2023/08/16 04:45:47;;;;;;;71.90;69.10;;;;;;;;;;5032634;28;20436;-38
2023/08/16 04:48:15;;;;;;;64.27;61.73;;;;;;;;;;5033293;28;20487;-38
2023/08/16 04:50:43;;;;;;;65.87;63.00;;;;;;;;;;5033061;28;20428;-38
2023/08/16 04:53:10;;;;;;;68.70;65.43;;;;;;;;;;5031232;28;20471;-39
2023/08/16 04:55:39;;;;;;;67.40;64.93;;;;;;;;;;5033042;28;20475;-39
2023/08/16 04:58:06;;;;;;;60.30;57.90;;;;;;;;;;5032984;28;20479;-39
2023/08/16 05:00:34;;;;;;;60.43;57.63;;;;;;;;;;5032466;28;20452;-39
2023/08/16 05:03:02;;;;;;;54.17;51.87;;;;;;;;;;5032633;28;20436;-39
2023/08/16 05:05:29;;;;;;;42.53;40.53;;;;;;;;;;5032228;28;20476;-39
2023/08/16 05:07:57;;;;;;;24.10;22.63;;;;;;;;;;5032239;28;20477;-39
2023/08/16 05:10:24;;;;;;;23.00;21.97;;;;;;;;;;5032608;28;20432;-39
2023/08/16 05:12:53;;;;;;;21.90;20.80;;;;;;;;;;5032101;28;20440;-42
2023/08/16 05:15:21;;;;;;;22.03;20.80;;;;;;;;;;5031787;28;20469;-39
2023/08/16 05:17:49;;;;;;;21.30;20.20;;;;;;;;;;5031953;28;20539;-44
2023/08/16 05:20:16;;;;;;;21.80;20.80;;;;;;;;;;5032675;28;20424;-42
2023/08/16 05:22:44;;;;;;;20.20;19.30;;;;;;;;;;5032349;28;20861;-40
2023/08/16 05:25:11;;;;;;;19.43;18.33;;;;;;;;;;5032073;28;20542;-39
2023/08/16 05:27:39;;;;;;;18.73;17.73;;;;;;;;;;5032270;28;20562;-39
2023/08/16 05:30:08;;;;;;;15.83;14.93;;;;;;;;;;5032198;28;20464;-39
2023/08/16 05:32:36;;;;;;;16.83;15.90;;;;;;;;;;5031875;28;20656;-41
2023/08/16 05:35:03;;;;;;;14.77;13.80;;;;;;;;;;5031038;28;20467;-40
2023/08/16 05:37:31;;;;;;;13.43;12.83;;;;;;;;;;5031846;28;20458;-39
2023/08/16 05:39:58;;;;;;;13.33;12.50;;;;;;;;;;5032002;28;20443;-39
2023/08/16 05:42:28;;;;;;;9.20;8.37;;;;;;;;;;5030703;28;20435;-39
2023/08/16 05:44:56;;;;;;;7.97;7.10;;;;;;;;;;5030673;28;20462;-40
2023/08/16 05:47:25;;;;;;;8.27;7.47;;;;;;;;;;5031383;28;20533;-40
2023/08/16 05:49:53;;;;;;;6.40;5.93;;;;;;;;;;5031545;28;21128;-41
2023/08/16 05:52:20;;;;;;;6.80;6.17;;;;;;;;;;5030700;28;20440;-41
2023/08/16 05:54:48;;;;;;;11.20;6.53;;;;;;;;;;5029722;28;20456;-40
2023/08/16 05:57:15;;;;;;;7.70;7.10;;;;;;;;;;5031185;28;20443;-41
2023/08/16 05:59:42;;;;;;;6.00;5.40;;;;;;;;;;5030664;28;20609;-42
2023/08/16 06:02:10;;;;;;;8.40;5.90;;;;;;;;;;5030878;28;20197;-39
2023/08/16 06:04:39;;;;;;;7.90;7.13;;;;;;;;;;5031348;28;20593;-40
2023/08/16 06:07:07;;;;;;;8.23;6.00;;;;;;;;;;5031255;28;20263;-39
2023/08/16 06:09:34;;;;;;;8.43;5.87;;;;;;;;;;5030709;28;20204;-41
2023/08/16 06:12:02;;;;;;;6.27;5.77;;;;;;;;;;5030346;28;20192;-39
2023/08/16 06:14:29;;;;;;;5.67;5.07;;;;;;;;;;5030404;28;20275;-42
2023/08/16 06:16:57;;;;;;;10.90;5.60;;;;;;;;;;5031324;28;20294;-39
2023/08/16 06:19:24;;;;;;;6.38;5.88;;;;;;;;;;5031353;28;20204;-39
2023/08/16 06:21:53;;;;;;;7.65;5.00;;;;;;;;;;5031556;28;20694;-40
2023/08/16 06:24:21;;;;;;;5.25;4.70;;;;;;;;;;5031000;28;20213;-40
2023/08/16 06:26:48;;;;;;;4.82;4.53;;;;;;;;;;5030537;28;20303;-39
2023/08/16 06:29:16;;;;;;;7.82;4.25;;;;;;;;;;5029741;28;20714;-40
2023/08/16 06:31:43;;;;;;;8.50;5.35;;;;;;;;;;5029638;28;20552;-39
2023/08/16 06:34:11;;;;;;;5.65;5.05;;;;;;;;;;5029683;28;20705;-40
2023/08/16 06:36:39;;;;;;;4.55;4.10;;;;;;;;;;5029980;28;20229;-40
2023/08/16 06:39:08;;;;;;;6.47;4.32;;;;;;;;;;5030200;28;20322;-40
2023/08/16 06:41:35;;;;;;;11.60;5.05;;;;;;;;;;5030297;28;20201;-47
2023/08/16 06:44:03;;;;;;;6.82;4.60;;;;;;;;;;5029881;28;20308;-40
2023/08/16 06:46:30;;;;;;;6.43;4.72;;;;;;;;;;5029168;28;20287;-40
2023/08/16 06:48:58;;;;;;;5.25;4.07;;;;;;;;;;5030815;28;20331;-39
2023/08/16 06:51:26;;;;;;;10.32;4.25;;;;;;;;;;5031149;28;20201;-40
2023/08/16 06:53:53;;;;;;;3.78;3.53;;;;;;;;;;5030125;28;20223;-40
2023/08/16 06:56:22;;;;;;;7.90;4.13;;;;;;;;;;5030638;28;20217;-42
2023/08/16 06:58:50;;;;;;;8.02;4.00;;;;;;;;;;5030778;28;20535;-42
2023/08/16 07:01:17;;;;;;;5.97;4.53;;;;;;;;;;5030168;28;20203;-39
2023/08/16 07:03:45;;;;;;;9.05;4.43;;;;;;;;;;5030408;28;20228;-41
2023/08/16 07:06:12;;;;;;;7.53;4.20;;;;;;;;;;5030078;28;20217;-43
2023/08/16 07:08:40;;;;;;;6.25;4.13;;;;;;;;;;5029951;28;20749;-41
2023/08/16 07:11:08;;;;;;;4.40;3.25;;;;;;;;;;5029687;28;20357;-40
2023/08/16 07:13:37;;;;;;;5.13;3.35;;;;;;;;;;5028542;28;20228;-40
2023/08/16 07:16:04;;;;;;;5.72;3.70;;;;;;;;;;5029795;28;20886;-40
2023/08/16 07:18:32;;;;;;;4.50;3.00;;;;;;;;;;5029432;28;20491;-40
2023/08/16 07:21:00;;;;;;;6.25;3.78;;;;;;;;;;5031638;28;20231;-41
2023/08/16 07:23:27;;;;;;;5.88;3.85;;;;;;;;;;5033007;28;20244;-39
2023/08/16 07:25:56;;;;;;;4.30;3.40;;;;;;;;;;5033401;28;20193;-40
2023/08/16 07:28:23;;;;;;;6.20;4.00;;;;;;;;;;5033660;28;20212;-40
2023/08/16 07:30:54;;;;;;;5.68;4.25;;;;;;;;;;5033515;28;20199;-40
2023/08/16 07:33:21;;;;;;;6.43;3.65;;;;;;;;;;5033461;28;20243;-40
2023/08/16 07:35:49;;;;;;;8.27;4.25;;;;;;;;;;5033939;28;20224;-39
2023/08/16 07:38:17;;;;;;;6.37;3.80;;;;;;;;;;5034227;28;20196;-40
2023/08/16 07:40:47;;;;;;;5.70;3.07;;;;;;;;;;5033773;28;20247;-39
2023/08/16 07:43:14;;;;;;;4.83;3.70;;;;;;;;;;5033227;28;20226;-39
2023/08/16 07:45:42;;;;;;;5.17;3.63;;;;;;;;;;5033523;28;20659;-39
2023/08/16 07:48:11;;;;;;;4.20;3.47;;;;;;;;;;5033239;28;20263;-38
2023/08/16 07:50:38;;;;;;;5.43;3.80;;;;;;;;;;5032929;28;20209;-39
2023/08/16 07:53:06;;;;;;;3.97;3.70;;;;;;;;;;5032543;28;20196;-38
2023/08/16 07:55:34;;;;;;;5.63;3.53;;;;;;;;;;5032805;28;20928;-41
2023/08/16 07:58:01;;;;;;;6.30;3.07;;;;;;;;;;5032551;28;20534;-41
2023/08/16 08:00:29;;;;;;;3.47;3.17;;;;;;;;;;5033021;28;20463;-42
2023/08/16 08:02:57;;;;;;;4.20;3.77;;;;;;;;;;5033609;28;20758;-41
2023/08/16 08:05:30;;;;;;;7.23;3.50;;;;;;;;;;5033460;28;20471;-39
2023/08/16 08:07:57;;;;;;;5.80;4.03;;;;;;;;;;5033253;28;20459;-38
2023/08/16 08:10:25;;;;;;;5.03;3.43;;;;;;;;;;5033398;28;20518;-41
2023/08/16 08:12:52;;;;;;;4.30;3.53;;;;;;;;;;5033832;28;20431;-38
2023/08/16 08:15:20;;;;;;;7.60;4.50;;;;;;;;;;5033637;28;20459;-44
2023/08/16 08:17:48;;;;;;;5.43;3.30;;;;;;;;;;5033884;28;20452;-40
2023/08/16 08:20:15;;;;;;;5.80;3.57;;;;;;;;;;5033262;28;20971;-39
2023/08/16 08:22:45;;;;;;;3.30;3.10;;;;;;;;;;5033368;28;20435;-40
2023/08/16 08:25:12;;;;;;;6.07;3.60;;;;;;;;;;5033361;28;20829;-42
2023/08/16 08:27:40;;;;;;;3.87;3.63;;;;;;;;;;5033874;28;20824;-40
2023/08/16 08:30:08;;;;;;;6.33;3.90;;;;;;;;;;5034205;28;20560;-40
2023/08/16 08:32:35;;;;;;;5.07;3.80;;;;;;;;;;5032449;28;20459;-39
2023/08/16 08:35:04;;;;;;;5.50;3.13;;;;;;;;;;5031495;28;20463;-41
2023/08/16 08:37:32;;;;;;;5.93;3.90;;;;;;;;;;5032499;28;21050;-41
2023/08/16 08:40:01;;;;;;;5.57;3.87;;;;;;;;;;5033716;28;20435;-38
2023/08/16 08:42:30;;;;;;;4.20;3.50;;;;;;;;;;5033079;28;20486;-39
2023/08/16 08:45:01;;;;;;;3.60;3.30;;;;;;;;;;5032353;28;20459;-39
2023/08/16 08:47:29;;;;;;;5.13;3.93;;;;;;;;;;5032387;28;20459;-41
2023/08/16 08:49:58;;;;;;;7.70;4.40;;;;;;;;;;5033524;28;20467;-39
2023/08/16 08:52:26;;;;;;;6.20;3.70;;;;;;;;;;5033054;28;20486;-40
2023/08/16 08:54:53;;;;;;;4.20;3.80;;;;;;;;;;5032993;28;20579;-40
2023/08/16 08:57:22;;;;;;;5.33;3.43;;;;;;;;;;5033161;28;20451;-39
2023/08/16 08:59:50;;;;;;;6.27;3.53;;;;;;;;;;5032626;28;20489;-41
2023/08/16 09:02:19;;;;;;;7.83;3.67;;;;;;;;;;5032321;28;20442;-41
2023/08/16 09:04:47;;;;;;;5.27;4.13;;;;;;;;;;5032164;28;20915;-39
2023/08/16 09:07:16;;;;;;;5.77;3.93;;;;;;;;;;5032960;28;20451;-38
2023/08/16 09:09:44;;;;;;;8.87;4.40;;;;;;;;;;5033087;28;20473;-39
2023/08/16 09:12:12;;;;;;;4.60;3.70;;;;;;;;;;5032609;28;20435;-39
2023/08/16 09:14:41;;;;;;;5.50;3.40;;;;;;;;;;5031760;28;20464;-39
2023/08/16 09:17:09;;;;;;;3.90;3.60;;;;;;;;;;5032380;28;20574;-40
2023/08/16 09:19:43;;;;;;;3.97;3.67;;;;;;;;;;5032071;28;20436;-38
2023/08/16 09:22:11;;;;;;;6.03;3.40;;;;;;;;;;5032442;28;20431;-39
2023/08/16 09:24:40;;;;;;;6.17;3.70;;;;;;;;;;5032052;28;20472;-38
2023/08/16 09:27:08;;;;;;;4.90;3.13;;;;;;;;;;5032506;28;20551;-40
2023/08/16 09:29:37;;;;;;;4.07;2.60;;;;;;;;;;5032394;28;20475;-39
2023/08/16 09:32:07;;;;;;;10.10;3.53;;;;;;;;;;5032331;28;20482;-39
2023/08/16 09:34:35;;;;;;;9.47;3.57;;;;;;;;;;5032367;28;20469;-39
2023/08/16 09:37:15;;;;;;;6.30;3.53;;;;;;;;;;5032012;28;20981;-39
2023/08/16 09:39:42;;;;;;;3.63;3.10;;;;;;;;;;5031794;28;20440;-39
2023/08/16 09:42:10;;;;;;;4.70;3.40;;;;;;;;;;5031889;28;20439;-39
2023/08/16 09:44:40;;;;;;;4.37;3.37;;;;;;;;;;5030366;28;20459;-39
2023/08/16 09:47:13;;;;;;;4.83;3.20;;;;;;;;;;5032269;28;20836;-38
2023/08/16 09:49:44;;;;;;;3.57;3.37;;;;;;;;;;5031821;28;20477;-42
2023/08/16 09:52:12;;;;;;;5.23;3.30;;;;;;;;;;5031532;28;20436;-39
2023/08/16 09:54:41;;;;;;;9.83;4.37;;;;;;;;;;5031516;28;20543;-40
2023/08/16 09:57:08;;;;;;;4.13;3.87;;;;;;;;;;5031957;28;20451;-39
2023/08/16 09:59:39;;;;;;;4.17;3.73;;;;;;;;;;5031813;28;20434;-40
2023/08/16 10:02:10;;;;;;;5.60;4.10;;;;;;;;;;5032041;28;20812;-40
2023/08/16 10:04:42;;;;;;;5.30;4.07;;;;;;;;;;5031320;28;20459;-39
2023/08/16 10:07:12;;;;;;;6.10;3.47;;;;;;;;;;5031703;28;20486;-41
2023/08/16 10:09:41;;;;;;;5.73;3.60;;;;;;;;;;5031545;28;20474;-39
2023/08/16 10:12:10;;;;;;;5.10;3.30;;;;;;;;;;5031343;28;20439;-38
2023/08/16 10:14:38;;;;;;;5.43;3.40;;;;;;;;;;5031595;28;20470;-40
2023/08/16 10:17:07;;;;;;;3.37;3.07;;;;;;;;;;5031197;28;20444;-39
2023/08/16 10:19:36;;;;;;;3.30;3.00;;;;;;;;;;5031269;28;20432;-40
2023/08/16 10:22:08;;;;;;;3.73;3.13;;;;;;;;;;5031049;28;20944;-39
2023/08/16 10:24:56;;;;;;;4.43;3.50;;;;;;;;;;5031119;28;20467;-40
2023/08/16 10:27:24;;;;;;;5.00;4.13;;;;;;;;;;5030910;28;20468;-39
2023/08/16 10:29:58;;;;;;;3.80;3.10;;;;;;;;;;5030806;28;20506;-39
2023/08/16 10:32:35;;;;;;;4.60;3.30;;;;;;;;;;5029575;28;20443;-39
2023/08/16 10:35:05;;;;;;;7.23;3.60;;;;;;;;;;5030662;28;20463;-39
2023/08/16 10:37:33;;;;;;;5.60;3.43;;;;;;;;;;5030667;28;20448;-40
2023/08/16 10:40:16;;;;;;;5.30;3.90;;;;;;;;;;5031111;28;20439;-40
2023/08/16 10:42:52;;;;;;;4.33;3.53;;;;;;;;;;5031360;28;20820;-39
2023/08/16 10:45:23;;;;;;;3.97;3.60;;;;;;;;;;5030066;28;20469;-44
2023/08/16 10:47:51;;;;;;;5.97;4.10;;;;;;;;;;5030113;28;20605;-39
2023/08/16 10:50:19;;;;;;;4.00;3.63;;;;;;;;;;5030225;28;20594;-39
2023/08/16 10:52:47;;;;;;;6.63;4.30;;;;;;;;;;5028969;28;20436;-38
2023/08/16 10:55:23;;;;;;;8.33;4.10;;;;;;;;;;5029888;28;20490;-38
2023/08/16 10:57:52;;;;;;;6.73;3.23;;;;;;;;;;5029529;28;20455;-38
2023/08/16 11:00:20;;;;;;;6.40;3.70;;;;;;;;;;5029355;28;20992;-40
2023/08/16 11:02:54;;;;;;;7.63;3.87;;;;;;;;;;5028825;28;20847;-43
2023/08/16 11:05:24;;;;;;;5.30;3.87;;;;;;;;;;5029208;28;20467;-42
2023/08/16 11:07:53;;;;;;;4.10;3.67;;;;;;;;;;5028747;28;20459;-41
2023/08/16 11:10:21;;;;;;;5.20;3.80;;;;;;;;;;5029523;28;20914;-41
2023/08/16 11:12:49;;;;;;;3.93;3.47;;;;;;;;;;5029303;28;20527;-40
2023/08/16 11:15:18;;;;;;;3.60;3.30;;;;;;;;;;5028449;28;20503;-43
2023/08/16 11:17:46;;;;;;;5.90;4.10;;;;;;;;;;5029604;28;20455;-40
2023/08/16 11:20:34;;;;;;;3.97;3.30;;;;;;;;;;5030052;28;20439;-40
2023/08/16 11:23:04;;;;;;;4.40;3.20;;;;;;;;;;5030689;28;20440;-42
2023/08/16 11:25:33;;;;;;;3.83;3.27;;;;;;;;;;5030205;28;20464;-39
2023/08/16 11:28:01;;;;;;;3.37;3.07;;;;;;;;;;5030392;28;20957;-40
2023/08/16 11:30:28;;;;;;;3.43;3.00;;;;;;;;;;5030539;28;20477;-40
2023/08/16 11:32:55;;;;;;;3.50;3.20;;;;;;;;;;5030296;28;20439;-40
2023/08/16 11:35:24;;;;;;;3.30;3.20;;;;;;;;;;5030244;28;20487;-45
2023/08/16 11:37:52;;;;;;;3.33;3.10;;;;;;;;;;5030654;28;20522;-40
2023/08/16 11:40:22;;;;;;;3.77;3.20;;;;;;;;;;5030221;28;20424;-39
2023/08/16 11:42:50;;;;;;;3.70;3.40;;;;;;;;;;5030596;28;20525;-41
2023/08/16 11:45:18;;;;;;;3.23;2.93;;;;;;;;;;5029717;28;20586;-39
2023/08/16 11:47:49;;;;;;;3.70;3.40;;;;;;;;;;5030194;28;20460;-41
2023/08/16 11:50:17;;;;;;;4.10;3.80;;;;;;;;;;5030249;28;21013;-40
2023/08/16 11:52:45;;;;;;;3.10;2.80;;;;;;;;;;5030043;28;20436;-41
2023/08/16 11:55:14;;;;;;;3.60;3.13;;;;;;;;;;5029683;28;20558;-40
2023/08/16 11:57:47;;;;;;;5.40;3.57;;;;;;;;;;5030076;28;20487;-40
2023/08/16 12:00:25;;;;;;;4.87;3.60;;;;;;;;;;5030322;28;20933;-39
2023/08/16 12:02:53;;;;;;;8.23;3.23;;;;;;;;;;5029371;28;20435;-40
2023/08/16 12:05:21;;;;;;;5.50;3.23;;;;;;;;;;5028820;28;20482;-39
2023/08/16 12:07:51;;;;;;;3.70;3.40;;;;;;;;;;5032980;28;20447;-40
2023/08/16 12:10:22;;;;;;;3.40;3.10;;;;;;;;;;5033352;28;20467;-40
2023/08/16 12:12:52;;;;;;;3.70;3.37;;;;;;;;;;5032722;28;20482;-41
2023/08/16 12:15:23;;;;;;;3.60;3.30;;;;;;;;;;5033138;28;20499;-41
2023/08/16 12:17:50;;;;;;;3.53;3.33;;;;;;;;;;5033896;28;20463;-39
2023/08/16 12:20:18;;;;;;;3.23;2.93;;;;;;;;;;5033399;28;20522;-42
2023/08/16 12:22:46;;;;;;;4.00;3.63;;;;;;;;;;5033972;28;20522;-42
2023/08/16 12:25:14;;;;;;;3.63;3.30;;;;;;;;;;5033313;28;20461;-40
2023/08/16 12:27:41;;;;;;;6.30;3.40;;;;;;;;;;5033606;28;20456;-44
2023/08/16 12:30:10;;;;;;;4.37;3.50;;;;;;;;;;5033190;28;20535;-39
2023/08/16 12:32:38;;;;;;;3.93;3.53;;;;;;;;;;5033590;28;20435;-39
2023/08/16 12:35:06;;;;;;;3.40;3.10;;;;;;;;;;5032878;28;20463;-41
2023/08/16 12:37:33;;;;;;;3.47;3.17;;;;;;;;;;5033393;28;20452;-41
2023/08/16 12:40:11;;;;;;;3.80;3.50;;;;;;;;;;5033318;28;20435;-40
2023/08/16 12:42:38;;;;;;;4.17;3.43;;;;;;;;;;5033083;28;20436;-40
2023/08/16 12:45:06;;;;;;;6.63;3.07;;;;;;;;;;5033010;28;21054;-42
2023/08/16 12:47:35;;;;;;;4.03;3.67;;;;;;;;;;5032183;28;20491;-39
2023/08/16 12:50:03;;;;;;;5.57;3.10;;;;;;;;;;5033252;28;20820;-40
2023/08/16 12:52:31;;;;;;;4.60;3.37;;;;;;;;;;5033058;28;20475;-38
2023/08/16 12:54:59;;;;;;;3.43;3.13;;;;;;;;;;5032354;28;20510;-40
2023/08/16 12:57:29;;;;;;;3.70;3.47;;;;;;;;;;5032735;28;20522;-41
2023/08/16 13:00:11;;;;;;;5.27;3.37;;;;;;;;;;5033081;28;20460;-39
2023/08/16 13:02:41;;;;;;;3.53;3.23;;;;;;;;;;5032700;28;20464;-39
2023/08/16 13:05:23;;;;;;;4.13;3.73;;;;;;;;;;5032362;28;20513;-39
2023/08/16 13:08:00;;;;;;;3.37;3.27;;;;;;;;;;5033043;28;20448;-40
2023/08/16 13:10:31;;;;;;;4.57;3.67;;;;;;;;;;5032923;28;20442;-39
2023/08/16 13:13:06;;;;;;;3.90;3.60;;;;;;;;;;5032665;28;20438;-39
2023/08/16 13:15:36;;;;;;;7.10;3.50;;;;;;;;;;5031341;28;20451;-44
2023/08/16 13:18:10;;;;;;;7.10;3.20;;;;;;;;;;5032196;28;20522;-42
2023/08/16 13:20:40;;;;;;;4.33;3.90;;;;;;;;;;5031142;28;20775;-39
2023/08/16 13:23:12;;;;;;;4.47;3.03;;;;;;;;;;5031801;28;20431;-40
2023/08/16 13:25:42;;;;;;;3.97;3.57;;;;;;;;;;5032812;28;20428;-43
2023/08/16 13:28:12;;;;;;;4.27;3.13;;;;;;;;;;5032371;28;20784;-39
2023/08/16 13:30:42;;;;;;;8.33;4.00;;;;;;;;;;5031952;28;20427;-41
2023/08/16 13:33:31;;;;;;;3.40;3.20;;;;;;;;;;5030426;28;20455;-41
2023/08/16 13:36:10;;;;;;;4.13;3.57;;;;;;;;;;5031204;28;20455;-39
2023/08/16 13:38:49;;;;;;;4.90;3.50;;;;;;;;;;5032414;28;20436;-39
2023/08/16 13:41:17;;;;;;;3.53;3.23;;;;;;;;;;5032262;28;20438;-39
2023/08/16 13:43:52;;;;;;;4.00;3.70;;;;;;;;;;5031120;28;20999;-40
2023/08/16 13:46:39;;;;;;;3.20;3.00;;;;;;;;;;5031181;28;20459;-38
2023/08/16 13:49:08;;;;;;;3.73;3.50;;;;;;;;;;5031589;28;20985;-42
2023/08/16 13:51:36;;;;;;;3.40;3.20;;;;;;;;;;5031519;28;20566;-39
2023/08/16 13:54:04;;;;;;;4.13;2.93;;;;;;;;;;5031571;28;20455;-40
2023/08/16 13:56:31;;;;;;;3.27;3.07;;;;;;;;;;5031962;28;20953;-41
2023/08/16 13:59:14;;;;;;;5.17;3.10;;;;;;;;;;5031802;28;20431;-38
2023/08/16 14:01:42;;;;;;;3.60;3.10;;;;;;;;;;5032240;28;20427;-40
2023/08/16 14:04:11;;;;;;;4.67;2.90;;;;;;;;;;5031014;28;20471;-40
2023/08/16 14:06:38;;;;;;;8.30;3.60;;;;;;;;;;5031637;28;20460;-40
2023/08/16 14:09:06;;;;;;;4.13;3.73;;;;;;;;;;5031821;28;20944;-40
2023/08/16 14:11:33;;;;;;;4.07;3.30;;;;;;;;;;5031218;28;20533;-44
2023/08/16 14:14:01;;;;;;;5.33;3.57;;;;;;;;;;5030955;28;20518;-42
2023/08/16 14:16:28;;;;;;;4.77;3.57;;;;;;;;;;5031062;28;20498;-41
2023/08/16 14:18:57;;;;;;;3.17;2.97;;;;;;;;;;5030998;28;20467;-40
2023/08/16 14:21:25;;;;;;;3.33;3.10;;;;;;;;;;5031150;28;20432;-39
2023/08/16 14:23:53;;;;;;;3.43;3.13;;;;;;;;;;5030526;28;20521;-41
2023/08/16 14:26:22;;;;;;;3.77;3.37;;;;;;;;;;5031009;28;20846;-43
2023/08/16 14:28:50;;;;;;;3.60;3.03;;;;;;;;;;5030507;28;20474;-41
2023/08/16 14:31:17;;;;;;;4.10;3.60;;;;;;;;;;5029572;28;20467;-41
2023/08/16 14:33:45;;;;;;;3.30;3.00;;;;;;;;;;5029808;28;20459;-40
2023/08/16 14:36:12;;;;;;;3.07;2.97;;;;;;;;;;5030385;28;20466;-40
2023/08/16 14:38:41;;;;;;;3.23;2.77;;;;;;;;;;5031344;28;20809;-43
2023/08/16 14:41:24;;;;;;;3.60;3.30;;;;;;;;;;5029792;28;20701;-42
2023/08/16 14:43:52;;;;;;;4.63;3.23;;;;;;;;;;5030631;28;20451;-40